Terminal Aerodrome Forecast
Issued by NWS

Home | Current Version | Previous Version | Text Only | Print | Product List | Glossary On
Versions: 1 2 3 4 5 6 7 8 9 10 11 12 13 14 15 16 17 18 19 20 21 22 23 24 25 26 27 28
000
FTUS43 KDLH 290500
TAFHYR
TAF
KHYR 290520Z 2906/3006 00000KT P6SM SCT080
     FM291800 32008KT P6SM VCSH BKN050
     FM292100 34007KT P6SM VCTS BKN050CB
     FM300200 01003KT P6SM SCT050=

USA.gov is the U.S. government's official web portal to all federal, state and local government web resources and services.